createdAt,value
2019-04-06T00:01:05.005Z,30.50
2019-04-06T00:03:36.833Z,30.27
2019-04-06T00:06:10.703Z,29.60
2019-04-06T00:08:42.497Z,30.97
2019-04-06T00:11:14.394Z,33.70
2019-04-06T00:13:46.418Z,28.50
2019-04-06T00:16:18.180Z,29.20
2019-04-06T00:18:49.963Z,31.63
2019-04-06T00:21:21.927Z,31.87
2019-04-06T00:23:53.628Z,29.43
2019-04-06T00:26:25.762Z,31.90
2019-04-06T00:28:57.740Z,31.90
2019-04-06T00:31:51.332Z,31.47
2019-04-06T00:34:23.452Z,29.65
2019-04-06T00:36:55.086Z,30.87
2019-04-06T00:39:26.670Z,27.87
2019-04-06T00:41:58.242Z,30.90
2019-04-06T00:44:30.002Z,32.67
2019-04-06T00:47:01.756Z,31.12
2019-04-06T00:49:33.826Z,32.00
2019-04-06T00:52:05.927Z,31.68
2019-04-06T00:54:37.579Z,27.67
2019-04-06T00:57:09.136Z,28.07
2019-04-06T00:59:40.979Z,28.33
2019-04-06T01:02:12.573Z,25.43
2019-04-06T01:04:44.172Z,31.87
2019-04-06T01:07:16.629Z,25.40
2019-04-06T01:09:48.580Z,35.17
2019-04-06T01:12:20.986Z,28.83
2019-04-06T01:14:52.703Z,33.87
2019-04-06T01:17:24.790Z,27.00
2019-04-06T01:19:57.651Z,31.17
2019-04-06T01:22:29.345Z,27.57
2019-04-06T01:25:01.281Z,24.73
2019-04-06T01:27:33.111Z,32.40
2019-04-06T01:30:05.487Z,25.70
2019-04-06T01:32:37.150Z,25.93
2019-04-06T01:35:08.906Z,28.23
2019-04-06T01:37:40.406Z,31.67
2019-04-06T01:40:12.253Z,25.40
2019-04-06T01:42:44.023Z,30.50
2019-04-06T01:45:16.573Z,25.02
2019-04-06T01:47:49.762Z,28.93
2019-04-06T01:50:21.917Z,27.10
2019-04-06T01:52:53.870Z,24.67
2019-04-06T01:55:25.752Z,25.17
2019-04-06T01:57:57.485Z,28.87
2019-04-06T02:00:28.967Z,27.77
2019-04-06T02:03:00.853Z,24.63
2019-04-06T02:05:32.365Z,30.67
2019-04-06T02:08:04.051Z,24.70
2019-04-06T02:10:37.009Z,25.63
2019-04-06T02:13:08.642Z,30.73
2019-04-06T02:15:41.472Z,23.93
2019-04-06T02:18:13.313Z,28.80
2019-04-06T02:20:45.242Z,22.20
2019-04-06T02:23:17.061Z,23.38
2019-04-06T02:25:48.605Z,21.90
2019-04-06T02:28:20.204Z,22.47
2019-04-06T02:31:06.357Z,25.83
2019-04-06T02:34:09.569Z,21.63
2019-04-06T02:37:01.476Z,20.80
2019-04-06T02:39:38.743Z,21.73
2019-04-06T02:42:17.663Z,21.10
2019-04-06T02:44:49.612Z,24.27
2019-04-06T02:47:21.143Z,19.07
2019-04-06T02:49:52.674Z,25.50
2019-04-06T02:52:24.580Z,21.33
2019-04-06T02:54:56.167Z,19.73
2019-04-06T02:57:27.990Z,17.77
2019-04-06T02:59:59.980Z,18.10
2019-04-06T03:02:31.618Z,17.90
2019-04-06T03:05:03.480Z,18.00
2019-04-06T03:07:35.403Z,20.80
2019-04-06T03:10:07.633Z,18.13
2019-04-06T03:12:39.181Z,20.67
2019-04-06T03:15:11.015Z,28.63
2019-04-06T03:17:42.996Z,17.57
2019-04-06T03:20:14.638Z,17.62
2019-04-06T03:22:46.608Z,21.60
2019-04-06T03:25:19.183Z,20.63
2019-04-06T03:27:50.769Z,20.53
2019-04-06T03:30:22.520Z,17.10
2019-04-06T03:32:54.512Z,18.67
2019-04-06T03:35:26.456Z,19.50
2019-04-06T03:37:59.320Z,22.40
2019-04-06T03:40:31.262Z,18.17
2019-04-06T03:43:03.305Z,20.93
2019-04-06T03:45:35.260Z,17.40
2019-04-06T03:48:06.921Z,19.50
2019-04-06T03:50:38.777Z,19.23
2019-04-06T03:53:10.436Z,20.43
2019-04-06T03:55:42.809Z,23.90
2019-04-06T03:58:14.490Z,19.03
2019-04-06T04:00:46.227Z,18.63
2019-04-06T04:03:18.001Z,19.50
2019-04-06T04:05:49.552Z,16.97
2019-04-06T04:08:21.874Z,17.82
2019-04-06T04:10:53.919Z,18.23
2019-04-06T04:13:25.638Z,21.63
2019-04-06T04:15:58.182Z,17.47
2019-04-06T04:18:29.865Z,19.70
2019-04-06T04:21:02.015Z,17.83
2019-04-06T04:23:34.263Z,22.03
2019-04-06T04:26:05.928Z,20.43
2019-04-06T04:28:39.317Z,18.70
2019-04-06T04:31:10.973Z,19.73
2019-04-06T04:33:42.730Z,21.67
2019-04-06T04:36:17.329Z,18.40
2019-04-06T04:38:48.988Z,21.80
2019-04-06T04:41:20.516Z,21.30
2019-04-06T04:43:52.734Z,18.30
2019-04-06T04:46:24.907Z,18.70
2019-04-06T04:48:56.679Z,18.50
2019-04-06T04:51:28.386Z,24.53
2019-04-06T04:54:01.133Z,21.40
2019-04-06T04:56:33.445Z,19.90
2019-04-06T04:59:05.996Z,18.53
2019-04-06T05:01:37.686Z,21.30
2019-04-06T05:04:09.442Z,17.00
2019-04-06T05:06:41.134Z,17.00
2019-04-06T05:09:12.772Z,24.63
2019-04-06T05:11:44.438Z,17.77
2019-04-06T05:14:51.514Z,22.02
2019-04-06T05:17:24.408Z,17.67
2019-04-06T05:19:57.622Z,16.53
2019-04-06T05:22:30.495Z,16.87
2019-04-06T05:25:02.440Z,22.83
2019-04-06T05:27:34.260Z,18.40
2019-04-06T05:30:08.299Z,16.93
2019-04-06T05:32:39.882Z,20.37
2019-04-06T05:35:13.318Z,17.62
2019-04-06T05:37:44.954Z,18.53
2019-04-06T05:40:16.951Z,28.62
2019-04-06T05:42:48.959Z,19.10
2019-04-06T05:45:21.239Z,26.67
2019-04-06T05:47:53.930Z,17.10
2019-04-06T05:50:25.533Z,16.97
2019-04-06T05:52:58.086Z,17.93
2019-04-06T05:55:29.616Z,19.03
2019-04-06T05:58:04.421Z,16.17
2019-04-06T06:00:35.229Z,20.53
2019-04-06T06:03:08.610Z,16.20
2019-04-06T06:05:41.162Z,16.73
2019-04-06T06:08:12.834Z,17.62
2019-04-06T06:10:44.658Z,20.47
2019-04-06T06:13:16.528Z,16.67
2019-04-06T06:15:49.006Z,23.20
2019-04-06T06:18:26.324Z,18.87
2019-04-06T06:20:54.018Z,20.03
2019-04-06T06:23:26.569Z,23.32
2019-04-06T06:25:58.349Z,24.13
2019-04-06T06:28:29.947Z,20.07
2019-04-06T06:31:03.960Z,23.53
2019-04-06T06:33:35.662Z,22.77
2019-04-06T06:36:07.541Z,19.13
2019-04-06T06:38:39.969Z,19.20
2019-04-06T06:41:11.579Z,23.60
2019-04-06T06:43:45.259Z,19.20
2019-04-06T06:46:17.095Z,17.70
2019-04-06T06:48:49.017Z,20.30
2019-04-06T06:51:20.896Z,18.83
2019-04-06T06:53:52.752Z,17.10
2019-04-06T06:56:24.805Z,18.23
2019-04-06T06:58:56.841Z,19.30
2019-04-06T07:01:28.543Z,19.40
2019-04-06T07:04:01.188Z,19.83
2019-04-06T07:06:33.043Z,23.70
2019-04-06T07:09:06.124Z,19.83
2019-04-06T07:11:37.734Z,20.52
2019-04-06T07:14:09.575Z,21.67
2019-04-06T07:16:42.212Z,20.17
2019-04-06T07:19:14.043Z,21.73
2019-04-06T07:21:46.661Z,21.27
2019-04-06T07:24:18.328Z,20.20
2019-04-06T07:26:49.938Z,22.13
2019-04-06T07:29:22.648Z,19.43
2019-04-06T07:31:54.866Z,18.33
2019-04-06T07:34:26.483Z,21.13
2019-04-06T07:36:58.202Z,18.90
2019-04-06T07:39:30.143Z,17.63
2019-04-06T07:42:02.322Z,18.57
2019-04-06T07:44:34.904Z,17.03
2019-04-06T07:47:06.616Z,17.83
2019-04-06T07:49:38.481Z,19.00
2019-04-06T07:52:10.302Z,21.57
2019-04-06T07:54:41.960Z,21.00
2019-04-06T07:57:14.876Z,20.45
2019-04-06T07:59:46.899Z,25.20
2019-04-06T08:02:18.560Z,21.07
2019-04-06T08:04:50.300Z,17.53
2019-04-06T08:07:23.763Z,18.70
2019-04-06T08:09:55.512Z,19.97
2019-04-06T08:12:27.370Z,18.60
2019-04-06T08:14:58.988Z,24.20
2019-04-06T08:17:30.697Z,20.37
2019-04-06T08:20:04.501Z,25.77
2019-04-06T08:22:36.342Z,19.80
2019-04-06T08:25:08.294Z,19.60
2019-04-06T08:27:39.964Z,21.62
2019-04-06T08:30:13.283Z,22.10
2019-04-06T08:32:45.405Z,22.37
2019-04-06T08:35:25.442Z,23.03
2019-04-06T08:37:51.756Z,25.63
2019-04-06T08:40:23.632Z,24.70
2019-04-06T08:42:55.641Z,21.77
2019-04-06T08:45:27.324Z,20.00
2019-04-06T08:48:00.206Z,21.63
2019-04-06T08:50:32.410Z,22.17
2019-04-06T08:53:03.976Z,23.03
2019-04-06T08:55:35.814Z,21.57
2019-04-06T08:58:07.440Z,19.17
2019-04-06T09:00:39.227Z,20.87
2019-04-06T09:03:10.956Z,19.50
2019-04-06T09:05:43.407Z,20.93
2019-04-06T09:08:15.079Z,27.53
2019-04-06T09:10:48.130Z,23.33
2019-04-06T09:13:20.051Z,19.57
2019-04-06T09:15:52.057Z,26.17
2019-04-06T09:18:24.481Z,28.60
2019-04-06T09:20:56.458Z,20.57
2019-04-06T09:23:28.075Z,21.93
2019-04-06T09:26:01.270Z,21.37
2019-04-06T09:28:33.262Z,20.93
2019-04-06T09:31:07.074Z,20.67
2019-04-06T09:33:38.692Z,25.17
2019-04-06T09:36:10.288Z,21.15
2019-04-06T09:38:42.323Z,20.30
2019-04-06T09:41:14.097Z,20.30
2019-04-06T09:43:45.753Z,21.27
2019-04-06T09:46:34.967Z,20.80
2019-04-06T09:49:40.811Z,20.23
2019-04-06T09:52:31.450Z,23.60
2019-04-06T09:55:22.125Z,21.10
2019-04-06T09:58:09.525Z,20.43
2019-04-06T10:00:47.873Z,24.47
2019-04-06T10:03:41.302Z,21.42
2019-04-06T10:06:21.659Z,20.02
2019-04-06T10:09:12.177Z,23.93
2019-04-06T10:12:04.546Z,23.53
2019-04-06T10:15:01.505Z,19.80
2019-04-06T10:17:56.236Z,21.37
2019-04-06T10:20:45.815Z,22.00
2019-04-06T10:23:34.975Z,19.40
2019-04-06T10:26:38.489Z,20.63
2019-04-06T10:29:47.974Z,22.82
2019-04-06T10:32:28.701Z,22.35
2019-04-06T10:35:16.588Z,26.37
2019-04-06T10:37:54.931Z,18.93
2019-04-06T10:40:33.465Z,26.93
2019-04-06T10:43:24.995Z,19.00
2019-04-06T10:46:21.532Z,19.40
2019-04-06T10:49:05.072Z,21.33
2019-04-06T10:51:56.313Z,18.90
2019-04-06T10:54:45.960Z,21.03
2019-04-06T10:57:29.899Z,25.65
2019-04-06T11:00:26.422Z,23.07
2019-04-06T11:03:15.799Z,22.57
2019-04-06T11:06:06.396Z,19.97
2019-04-06T11:09:00.124Z,19.93
2019-04-06T11:11:57.298Z,18.30
2019-04-06T11:14:54.301Z,25.17
2019-04-06T11:17:40.702Z,19.43
2019-04-06T11:20:46.691Z,18.13
2019-04-06T11:23:39.482Z,19.00
2019-04-06T11:26:20.287Z,18.23
2019-04-06T11:29:16.934Z,18.97
2019-04-06T11:32:07.277Z,19.93
2019-04-06T11:35:01.272Z,19.40
2019-04-06T11:37:50.080Z,20.33
2019-04-06T11:40:44.150Z,18.52
2019-04-06T11:43:44.718Z,19.13
2019-04-06T11:46:35.177Z,18.37
2019-04-06T11:49:30.354Z,22.37
2019-04-06T11:52:36.048Z,24.17
2019-04-06T11:55:32.823Z,21.00
2019-04-06T11:58:29.565Z,20.37
2019-04-06T12:01:08.164Z,19.67
2019-04-06T12:03:57.536Z,20.90
2019-04-06T12:06:47.003Z,21.67
2019-04-06T12:09:43.777Z,24.77
2019-04-06T12:12:33.244Z,21.60
2019-04-06T12:15:32.309Z,19.90
2019-04-06T12:18:26.409Z,23.75
2019-04-06T12:21:15.741Z,21.07
2019-04-06T12:24:03.311Z,22.33
2019-04-06T12:26:45.249Z,20.03
2019-04-06T12:29:29.638Z,21.87
2019-04-06T12:32:38.896Z,22.33
2019-04-06T12:35:34.383Z,22.03
2019-04-06T12:38:28.173Z,25.53
2019-04-06T12:41:14.287Z,27.00
2019-04-06T12:43:57.865Z,24.20
2019-04-06T12:46:47.452Z,23.23
2019-04-06T12:49:44.113Z,24.67
2019-04-06T12:52:28.586Z,25.92
2019-04-06T12:55:09.506Z,28.20
2019-04-06T12:58:09.958Z,24.73
2019-04-06T13:01:00.653Z,30.00
2019-04-06T13:04:06.979Z,31.20
2019-04-06T13:06:54.474Z,33.67
2019-04-06T13:09:47.952Z,36.77
2019-04-06T13:12:54.128Z,40.85
2019-04-06T13:15:50.689Z,45.23
2019-04-06T13:18:47.477Z,36.03
2019-04-06T13:21:32.064Z,36.57
2019-04-06T13:24:12.476Z,36.63
2019-04-06T13:27:00.587Z,38.90
2019-04-06T13:29:54.462Z,36.50
2019-04-06T13:32:47.945Z,38.80
2019-04-06T13:35:41.413Z,38.13
2019-04-06T13:38:38.019Z,39.60
2019-04-06T13:41:34.593Z,41.80
2019-04-06T13:44:31.075Z,39.33
2019-04-06T13:47:21.745Z,40.75
2019-04-06T13:50:10.264Z,42.47
2019-04-06T13:53:07.081Z,42.47
2019-04-06T13:56:15.912Z,43.20
2019-04-06T13:59:14.008Z,42.40
2019-04-06T14:02:01.782Z,40.87
2019-04-06T14:05:04.575Z,40.90
2019-04-06T14:07:54.705Z,46.10
2019-04-06T14:10:58.752Z,46.17
2019-04-06T14:13:43.049Z,45.67
2019-04-06T14:16:35.225Z,46.80
2019-04-06T14:19:24.959Z,44.00
2019-04-06T14:22:06.862Z,46.77
2019-04-06T14:24:51.477Z,55.93
2019-04-06T14:27:44.863Z,54.00
2019-04-06T14:30:24.639Z,54.60
2019-04-06T14:33:21.726Z,51.93
2019-04-06T14:36:10.449Z,53.00
2019-04-06T14:38:59.167Z,53.85
2019-04-06T14:41:44.974Z,53.43
2019-04-06T14:44:38.061Z,54.75
2019-04-06T14:47:33.302Z,57.27
2019-04-06T14:50:34.658Z,56.40
2019-04-06T14:53:27.364Z,58.13
2019-04-06T14:56:20.702Z,59.77
2019-04-06T14:59:12.825Z,57.93
2019-04-06T15:02:00.137Z,60.73
2019-04-06T15:04:41.638Z,64.87
2019-04-06T15:07:31.530Z,61.00
2019-04-06T15:10:34.877Z,62.57
2019-04-06T15:13:23.804Z,60.37
2019-04-06T15:16:13.709Z,62.20
2019-04-06T15:19:11.486Z,69.90
2019-04-06T15:22:02.067Z,72.37
2019-04-06T15:25:07.713Z,71.03
2019-04-06T15:27:57.416Z,71.70
2019-04-06T15:30:47.500Z,72.03
2019-04-06T15:33:46.037Z,70.37
2019-04-06T15:36:37.564Z,66.93
2019-04-06T15:39:15.975Z,67.20
2019-04-06T15:41:58.490Z,67.50
2019-04-06T15:44:41.340Z,65.20
2019-04-06T15:47:40.972Z,64.87
2019-04-06T15:50:37.442Z,64.77
2019-04-06T15:53:31.290Z,63.60
2019-04-06T15:56:16.979Z,65.30
2019-04-06T15:59:08.283Z,70.60
2019-04-06T16:02:03.194Z,69.37
2019-04-06T16:04:55.120Z,70.60
2019-04-06T16:07:52.625Z,62.10
2019-04-06T16:10:36.102Z,61.23
2019-04-06T16:13:26.877Z,61.30
2019-04-06T16:16:03.888Z,62.93
2019-04-06T16:18:50.808Z,60.57
2019-04-06T16:21:34.553Z,60.67
2019-04-06T16:24:17.112Z,56.90
2019-04-06T16:27:10.983Z,61.03
2019-04-06T16:29:51.412Z,56.73
2019-04-06T16:32:41.655Z,60.23
2019-04-06T16:35:25.681Z,52.47
2019-04-06T16:38:22.618Z,48.30
2019-04-06T16:41:16.775Z,48.02
2019-04-06T16:43:57.313Z,45.77
2019-04-06T16:46:50.931Z,43.83
2019-04-06T16:49:47.639Z,44.67
2019-04-06T16:52:44.696Z,44.55
2019-04-06T16:55:34.360Z,43.97
2019-04-06T16:58:24.164Z,46.03
2019-04-06T17:01:27.098Z,42.97
2019-04-06T17:04:17.405Z,46.03
2019-04-06T17:07:06.859Z,44.57
2019-04-06T17:09:55.251Z,48.47
2019-04-06T17:12:45.817Z,44.93
2019-04-06T17:15:35.132Z,42.43
2019-04-06T17:18:25.565Z,43.40
2019-04-06T17:21:19.288Z,43.17
2019-04-06T17:24:16.619Z,45.83
2019-04-06T17:27:21.138Z,48.17
2019-04-06T17:30:16.539Z,47.27
2019-04-06T17:32:59.494Z,53.20
2019-04-06T17:35:43.501Z,47.17
2019-04-06T17:38:30.254Z,48.07
2019-04-06T17:41:15.208Z,48.00
2019-04-06T17:43:55.854Z,48.42
2019-04-06T17:46:46.833Z,49.03
2019-04-06T17:49:27.084Z,49.77
2019-04-06T17:52:23.475Z,51.67
2019-04-06T17:55:18.208Z,57.27
2019-04-06T17:58:08.778Z,57.07
2019-04-06T18:01:01.048Z,56.53
2019-04-06T18:04:01.093Z,58.40
2019-04-06T18:06:42.515Z,59.53
2019-04-06T18:09:20.885Z,59.83
2019-04-06T18:12:29.986Z,61.97
2019-04-06T18:15:02.053Z,58.57
2019-04-06T18:17:35.304Z,58.45
2019-04-06T18:20:07.366Z,60.13
2019-04-06T18:22:39.131Z,58.20
2019-04-06T18:25:10.968Z,60.00
2019-04-06T18:27:42.936Z,61.33
2019-04-06T18:30:14.905Z,62.07
2019-04-06T18:32:59.953Z,59.90
2019-04-06T18:35:24.613Z,52.67
2019-04-06T18:38:19.035Z,41.73
2019-04-06T18:40:50.838Z,46.33
2019-04-06T18:43:23.438Z,48.20
2019-04-06T18:45:56.998Z,46.87
2019-04-06T18:48:29.983Z,50.83
2019-04-06T18:51:02.217Z,54.43
2019-04-06T18:53:34.334Z,55.33
2019-04-06T18:56:06.326Z,56.55
2019-04-06T18:58:40.569Z,60.60
2019-04-06T19:01:14.567Z,60.98
2019-04-06T19:03:46.133Z,59.67
2019-04-06T19:06:19.351Z,62.43
2019-04-06T19:08:51.262Z,58.17
2019-04-06T19:11:23.190Z,58.13
2019-04-06T19:13:55.511Z,57.20
2019-04-06T19:16:28.560Z,59.03
2019-04-06T19:19:00.185Z,61.93
2019-04-06T19:21:34.371Z,60.97
2019-04-06T19:24:06.159Z,60.70
2019-04-06T19:26:38.701Z,65.73
2019-04-06T19:29:11.699Z,65.42
2019-04-06T19:31:44.361Z,67.47
2019-04-06T19:34:15.960Z,64.10
2019-04-06T19:36:47.542Z,65.87
2019-04-06T19:39:19.806Z,67.07
2019-04-06T19:41:51.615Z,66.53
2019-04-06T19:44:23.331Z,53.92
2019-04-06T19:46:55.109Z,39.60
2019-04-06T19:49:27.428Z,36.43
2019-04-06T19:51:58.997Z,34.50
2019-04-06T19:54:31.260Z,32.93
2019-04-06T19:57:03.213Z,32.38
2019-04-06T19:59:36.174Z,31.05
2019-04-06T20:02:09.422Z,24.37
2019-04-06T20:04:41.325Z,22.87
2019-04-06T20:07:13.021Z,20.83
2019-04-06T20:09:45.156Z,18.47
2019-04-06T20:12:16.952Z,17.00
2019-04-06T20:14:49.110Z,12.97
2019-04-06T20:17:20.904Z,13.10
2019-04-06T20:19:54.503Z,12.43
2019-04-06T20:22:26.019Z,11.37
2019-04-06T20:24:57.751Z,11.37
2019-04-06T20:27:29.577Z,10.50
2019-04-06T20:30:01.527Z,10.30
2019-04-06T20:32:33.756Z,10.13
2019-04-06T20:35:07.015Z,9.10
2019-04-06T20:37:38.617Z,9.90
2019-04-06T20:40:10.593Z,9.70
2019-04-06T20:42:42.331Z,8.60
2019-04-06T20:45:13.975Z,9.60
2019-04-06T20:47:45.686Z,9.70
2019-04-06T20:50:17.894Z,8.85
2019-04-06T20:52:50.763Z,9.70
2019-04-06T20:55:22.671Z,9.90
2019-04-06T20:57:56.117Z,9.10
2019-04-06T21:00:28.518Z,9.37
2019-04-06T21:03:01.083Z,10.13
2019-04-06T21:05:34.592Z,10.77
2019-04-06T21:08:07.052Z,11.50
2019-04-06T21:10:38.867Z,11.43
2019-04-06T21:13:11.197Z,12.03
2019-04-06T21:15:43.637Z,12.88
2019-04-06T21:18:16.595Z,13.80
2019-04-06T21:20:48.723Z,15.30
2019-04-06T21:23:20.716Z,14.37
2019-04-06T21:25:52.865Z,16.43
2019-04-06T21:28:24.704Z,16.00
2019-04-06T21:30:57.069Z,16.77
2019-04-06T21:33:29.660Z,18.50
2019-04-06T21:36:01.660Z,18.17
2019-04-06T21:38:33.330Z,19.60
2019-04-06T21:41:06.255Z,20.65
2019-04-06T21:43:38.021Z,20.13
2019-04-06T21:46:10.595Z,20.90
2019-04-06T21:48:43.813Z,20.40
2019-04-06T21:51:15.825Z,21.13
2019-04-06T21:53:48.234Z,20.87
2019-04-06T21:56:20.117Z,20.95
2019-04-06T21:58:53.127Z,19.97
2019-04-06T22:01:25.425Z,22.07
2019-04-06T22:03:58.616Z,21.93
2019-04-06T22:06:30.516Z,20.70
2019-04-06T22:09:02.761Z,22.67
2019-04-06T22:11:37.099Z,21.70
2019-04-06T22:14:09.299Z,22.30
2019-04-06T22:16:41.799Z,23.33
2019-04-06T22:19:13.333Z,23.75
2019-04-06T22:21:45.275Z,23.93
2019-04-06T22:24:18.643Z,24.90
2019-04-06T22:26:50.699Z,24.37
2019-04-06T22:29:22.825Z,24.50
2019-04-06T22:31:56.144Z,24.93
2019-04-06T22:34:36.334Z,23.13
2019-04-06T22:37:01.385Z,23.50
2019-04-06T22:39:34.012Z,21.50
2019-04-06T22:42:06.133Z,22.10
2019-04-06T22:44:38.215Z,23.03
2019-04-06T22:47:10.237Z,23.75
2019-04-06T22:49:43.267Z,25.03
2019-04-06T22:52:15.631Z,24.82
2019-04-06T22:54:47.735Z,26.23
2019-04-06T22:57:19.295Z,25.05
2019-04-06T22:59:50.887Z,26.07
2019-04-06T23:02:22.671Z,28.57
2019-04-06T23:05:16.203Z,25.47
2019-04-06T23:07:48.418Z,26.10
2019-04-06T23:10:20.264Z,24.97
2019-04-06T23:12:52.136Z,25.87
2019-04-06T23:15:24.524Z,23.57
2019-04-06T23:17:56.377Z,23.33
2019-04-06T23:20:29.906Z,23.13
2019-04-06T23:23:02.248Z,22.20
2019-04-06T23:25:34.079Z,21.67
2019-04-06T23:28:05.923Z,21.70
2019-04-06T23:30:38.487Z,20.73
2019-04-06T23:33:10.042Z,20.30
2019-04-06T23:35:42.280Z,21.20
2019-04-06T23:38:15.315Z,20.43
2019-04-06T23:40:47.164Z,20.63
2019-04-06T23:43:19.839Z,23.13
2019-04-06T23:45:51.592Z,21.07
2019-04-06T23:48:24.544Z,19.73
2019-04-06T23:50:57.345Z,19.57
2019-04-06T23:53:30.465Z,18.77
2019-04-06T23:56:02.690Z,20.23
2019-04-06T23:58:35.204Z,18.77
